sensor_id;sensor_type;location;lat;lon;timestamp;pressure;altitude;pressure_sealevel;temperature;humidity
45253;BME280;63171;50.520;30.486;2024-02-04T00:00:20;98701.34;;;6.42;100.00
45253;BME280;63171;50.520;30.486;2024-02-04T00:01:10;98696.53;;;6.36;100.00
45253;BME280;63171;50.520;30.486;2024-02-04T00:02:00;98702.66;;;6.35;100.00
45253;BME280;63171;50.520;30.486;2024-02-04T00:02:50;98709.44;;;6.37;100.00
45253;BME280;63171;50.520;30.486;2024-02-04T00:03:40;98694.97;;;6.33;100.00
45253;BME280;63171;50.520;30.486;2024-02-04T00:04:29;98703.69;;;6.32;100.00
45253;BME280;63171;50.520;30.486;2024-02-04T00:05:21;98707.75;;;6.36;100.00
45253;BME280;63171;50.520;30.486;2024-02-04T00:06:12;98695.69;;;6.35;100.00
45253;BME280;63171;50.520;30.486;2024-02-04T00:07:01;98696.63;;;6.34;100.00
45253;BME280;63171;50.520;30.486;2024-02-04T00:07:53;98698.59;;;6.31;100.00
45253;BME280;63171;50.520;30.486;2024-02-04T00:08:43;98678.84;;;6.28;100.00
45253;BME280;63171;50.520;30.486;2024-02-04T00:09:32;98695.53;;;6.24;100.00
45253;BME280;63171;50.520;30.486;2024-02-04T00:10:21;98686.63;;;6.28;100.00
45253;BME280;63171;50.520;30.486;2024-02-04T00:11:12;98681.81;;;6.22;100.00
45253;BME280;63171;50.520;30.486;2024-02-04T00:12:01;98698.44;;;6.19;100.00
45253;BME280;63171;50.520;30.486;2024-02-04T00:12:53;98697.41;;;6.22;100.00
45253;BME280;63171;50.520;30.486;2024-02-04T00:13:43;98689.72;;;6.20;100.00
45253;BME280;63171;50.520;30.486;2024-02-04T00:14:34;98689.91;;;6.17;100.00
45253;BME280;63171;50.520;30.486;2024-02-04T00:15:23;98688.78;;;6.21;100.00
45253;BME280;63171;50.520;30.486;2024-02-04T00:16:13;98692.00;;;6.25;100.00
45253;BME280;63171;50.520;30.486;2024-02-04T00:17:02;98662.47;;;6.26;100.00
45253;BME280;63171;50.520;30.486;2024-02-04T00:17:53;98682.53;;;6.24;100.00
45253;BME280;63171;50.520;30.486;2024-02-04T00:18:42;98688.56;;;6.25;100.00
45253;BME280;63171;50.520;30.486;2024-02-04T00:19:32;98700.38;;;6.30;100.00
45253;BME280;63171;50.520;30.486;2024-02-04T00:20:23;98711.59;;;6.31;100.00
45253;BME280;63171;50.520;30.486;2024-02-04T00:21:13;98694.81;;;6.22;100.00
45253;BME280;63171;50.520;30.486;2024-02-04T00:22:03;98677.75;;;6.18;100.00
45253;BME280;63171;50.520;30.486;2024-02-04T00:22:55;98690.25;;;6.26;100.00
45253;BME280;63171;50.520;30.486;2024-02-04T00:23:44;98693.56;;;6.28;100.00
45253;BME280;63171;50.520;30.486;2024-02-04T00:24:34;98691.63;;;6.31;100.00
45253;BME280;63171;50.520;30.486;2024-02-04T00:25:24;98709.16;;;6.28;100.00
45253;BME280;63171;50.520;30.486;2024-02-04T00:26:13;98695.94;;;6.18;100.00
45253;BME280;63171;50.520;30.486;2024-02-04T00:27:03;98711.44;;;6.19;100.00
45253;BME280;63171;50.520;30.486;2024-02-04T00:27:53;98706.97;;;6.21;100.00
45253;BME280;63171;50.520;30.486;2024-02-04T00:28:43;98695.53;;;6.24;100.00
45253;BME280;63171;50.520;30.486;2024-02-04T00:29:32;98702.81;;;6.19;100.00
45253;BME280;63171;50.520;30.486;2024-02-04T00:30:22;98698.63;;;6.16;100.00
45253;BME280;63171;50.520;30.486;2024-02-04T00:31:11;98700.66;;;6.11;100.00
45253;BME280;63171;50.520;30.486;2024-02-04T00:32:01;98701.50;;;6.12;100.00
45253;BME280;63171;50.520;30.486;2024-02-04T00:32:51;98700.88;;;6.08;100.00
45253;BME280;63171;50.520;30.486;2024-02-04T00:33:40;98704.19;;;6.10;100.00
45253;BME280;63171;50.520;30.486;2024-02-04T00:34:30;98712.72;;;6.12;100.00
45253;BME280;63171;50.520;30.486;2024-02-04T00:35:20;98704.41;;;6.07;100.00
45253;BME280;63171;50.520;30.486;2024-02-04T00:36:09;98707.72;;;6.09;100.00
45253;BME280;63171;50.520;30.486;2024-02-04T00:36:58;98702.34;;;6.12;100.00
45253;BME280;63171;50.520;30.486;2024-02-04T00:37:49;98703.94;;;6.15;100.00
45253;BME280;63171;50.520;30.486;2024-02-04T00:38:40;98697.69;;;6.17;100.00
45253;BME280;63171;50.520;30.486;2024-02-04T00:39:29;98692.72;;;6.14;100.00
45253;BME280;63171;50.520;30.486;2024-02-04T00:40:19;98690.03;;;6.02;100.00
45253;BME280;63171;50.520;30.486;2024-02-04T00:41:09;98686.59;;;6.01;100.00
45253;BME280;63171;50.520;30.486;2024-02-04T00:41:58;98679.19;;;5.95;100.00
45253;BME280;63171;50.520;30.486;2024-02-04T00:42:49;98691.81;;;6.01;100.00
45253;BME280;63171;50.520;30.486;2024-02-04T00:43:38;98695.97;;;6.04;100.00
45253;BME280;63171;50.520;30.486;2024-02-04T00:44:27;98685.69;;;6.02;100.00
45253;BME280;63171;50.520;30.486;2024-02-04T00:45:18;98691.59;;;6.04;100.00
45253;BME280;63171;50.520;30.486;2024-02-04T00:46:07;98692.72;;;6.00;100.00
45253;BME280;63171;50.520;30.486;2024-02-04T00:46:59;98706.16;;;6.07;100.00
45253;BME280;63171;50.520;30.486;2024-02-04T00:47:49;98705.97;;;6.10;100.00
45253;BME280;63171;50.520;30.486;2024-02-04T00:48:39;98703.47;;;6.08;100.00
45253;BME280;63171;50.520;30.486;2024-02-04T00:49:29;98695.66;;;6.08;100.00
45253;BME280;63171;50.520;30.486;2024-02-04T00:50:20;98693.81;;;6.10;100.00
45253;BME280;63171;50.520;30.486;2024-02-04T00:51:09;98699.50;;;6.03;100.00
45253;BME280;63171;50.520;30.486;2024-02-04T00:51:59;98693.47;;;6.02;100.00
45253;BME280;63171;50.520;30.486;2024-02-04T00:52:49;98702.25;;;6.00;100.00
45253;BME280;63171;50.520;30.486;2024-02-04T00:53:41;98699.31;;;6.06;100.00
45253;BME280;63171;50.520;30.486;2024-02-04T00:54:30;98698.38;;;6.07;100.00
45253;BME280;63171;50.520;30.486;2024-02-04T00:55:20;98693.06;;;6.08;100.00
45253;BME280;63171;50.520;30.486;2024-02-04T00:56:10;98692.88;;;6.11;100.00
45253;BME280;63171;50.520;30.486;2024-02-04T00:57:00;98702.34;;;6.12;100.00
45253;BME280;63171;50.520;30.486;2024-02-04T00:57:52;98702.44;;;6.11;100.00
45253;BME280;63171;50.520;30.486;2024-02-04T00:58:42;98702.34;;;6.12;100.00
45253;BME280;63171;50.520;30.486;2024-02-04T00:59:32;98704.00;;;6.13;100.00
45253;BME280;63171;50.520;30.486;2024-02-04T01:03:40;98697.41;;;6.22;100.00
45253;BME280;63171;50.520;30.486;2024-02-04T01:04:30;98694.06;;;6.20;100.00
45253;BME280;63171;50.520;30.486;2024-02-04T01:05:20;98703.44;;;6.22;100.00
45253;BME280;63171;50.520;30.486;2024-02-04T01:06:09;98691.16;;;6.25;100.00
45253;BME280;63171;50.520;30.486;2024-02-04T01:06:59;98698.25;;;6.22;100.00
45253;BME280;63171;50.520;30.486;2024-02-04T01:07:49;98695.19;;;6.16;100.00
45253;BME280;63171;50.520;30.486;2024-02-04T01:08:38;98695.84;;;6.19;100.00
45253;BME280;63171;50.520;30.486;2024-02-04T01:09:30;98693.03;;;6.22;100.00
45253;BME280;63171;50.520;30.486;2024-02-04T01:10:19;98698.03;;;6.26;100.00
45253;BME280;63171;50.520;30.486;2024-02-04T01:11:09;98699.69;;;6.27;100.00
45253;BME280;63171;50.520;30.486;2024-02-04T01:11:59;98697.31;;;6.23;100.00
45253;BME280;63171;50.520;30.486;2024-02-04T01:12:49;98691.56;;;6.18;100.00
45253;BME280;63171;50.520;30.486;2024-02-04T01:13:38;98693.03;;;6.22;100.00
45253;BME280;63171;50.520;30.486;2024-02-04T01:14:29;98686.63;;;6.28;100.00
45253;BME280;63171;50.520;30.486;2024-02-04T01:15:19;98687.94;;;6.21;100.00
45253;BME280;63171;50.520;30.486;2024-02-04T01:16:09;98684.88;;;6.29;100.00
45253;BME280;63171;50.520;30.486;2024-02-04T01:16:59;98693.56;;;6.28;100.00
45253;BME280;63171;50.520;30.486;2024-02-04T01:17:48;98684.19;;;6.25;100.00
45253;BME280;63171;50.520;30.486;2024-02-04T01:18:38;98684.88;;;6.29;100.00
45253;BME280;63171;50.520;30.486;2024-02-04T01:19:28;98688.66;;;6.23;100.00
45253;BME280;63171;50.520;30.486;2024-02-04T01:20:17;98690.06;;;6.29;100.00
45253;BME280;63171;50.520;30.486;2024-02-04T01:21:07;98691.72;;;6.30;100.00
45253;BME280;63171;50.520;30.486;2024-02-04T01:21:58;98687.63;;;6.26;100.00
45253;BME280;63171;50.520;30.486;2024-02-04T01:22:47;98693.56;;;6.28;100.00
45253;BME280;63171;50.520;30.486;2024-02-04T01:23:37;98697.94;;;6.27;100.00
45253;BME280;63171;50.520;30.486;2024-02-04T01:24:27;98696.00;;;6.31;100.00
45253;BME280;63171;50.520;30.486;2024-02-04T01:25:18;98693.41;;;6.31;100.00
45253;BME280;63171;50.520;30.486;2024-02-04T01:26:08;98692.00;;;6.25;100.00
45253;BME280;63171;50.520;30.486;2024-02-04T01:26:58;98696.00;;;6.31;100.00
45253;BME280;63171;50.520;30.486;2024-02-04T01:27:48;98694.97;;;6.33;100.00
45253;BME280;63171;50.520;30.486;2024-02-04T01:28:37;98688.09;;;6.32;100.00
45253;BME280;63171;50.520;30.486;2024-02-04T01:29:27;98696.63;;;6.34;100.00
45253;BME280;63171;50.520;30.486;2024-02-04T01:30:17;98693.94;;;6.36;100.00
45253;BME280;63171;50.520;30.486;2024-02-04T01:31:06;98691.13;;;6.39;100.00
45253;BME280;63171;50.520;30.486;2024-02-04T01:31:56;98695.31;;;6.41;100.00
45253;BME280;63171;50.520;30.486;2024-02-04T01:32:46;98683.53;;;6.36;100.00
45253;BME280;63171;50.520;30.486;2024-02-04T01:33:36;98694.88;;;6.35;100.00
45253;BME280;63171;50.520;30.486;2024-02-04T01:34:25;98690.81;;;6.31;100.00
45253;BME280;63171;50.520;30.486;2024-02-04T01:35:15;98695.91;;;6.32;100.00
45253;BME280;63171;50.520;30.486;2024-02-04T01:36:05;98693.56;;;6.28;100.00
45253;BME280;63171;50.520;30.486;2024-02-04T01:36:54;98702.75;;;6.33;100.00
45253;BME280;63171;50.520;30.486;2024-02-04T01:37:45;98702.34;;;6.39;100.00
45253;BME280;63171;50.520;30.486;2024-02-04T01:38:37;98704.84;;;6.41;100.00
45253;BME280;63171;50.520;30.486;2024-02-04T01:39:27;98698.75;;;6.42;100.00
45253;BME280;63171;50.520;30.486;2024-02-04T01:40:18;98703.50;;;6.35;100.00
45253;BME280;63171;50.520;30.486;2024-02-04T01:41:08;98708.06;;;6.32;100.00
45253;BME280;63171;50.520;30.486;2024-02-04T01:41:58;98703.97;;;6.28;100.00
45253;BME280;63171;50.520;30.486;2024-02-04T01:42:47;98713.38;;;6.30;100.00
45253;BME280;63171;50.520;30.486;2024-02-04T01:43:38;98710.16;;;6.39;100.00
45253;BME280;63171;50.520;30.486;2024-02-04T01:44:27;98711.19;;;6.37;100.00
45253;BME280;63171;50.520;30.486;2024-02-04T01:45:17;98703.59;;;6.34;100.00
45253;BME280;63171;50.520;30.486;2024-02-04T01:46:07;98698.50;;;6.32;100.00
45253;BME280;63171;50.520;30.486;2024-02-04T01:46:57;98711.59;;;6.31;100.00
45253;BME280;63171;50.520;30.486;2024-02-04T01:47:47;98710.66;;;6.32;100.00
45253;BME280;63171;50.520;30.486;2024-02-04T01:48:38;98703.59;;;6.34;100.00
45253;BME280;63171;50.520;30.486;2024-02-04T01:49:27;98705.16;;;6.36;100.00
45253;BME280;63171;50.520;30.486;2024-02-04T01:50:17;98704.53;;;6.33;100.00
45253;BME280;63171;50.520;30.486;2024-02-04T01:51:07;98696.31;;;6.39;100.00
45253;BME280;63171;50.520;30.486;2024-02-04T01:51:57;98684.25;;;6.38;100.00
45253;BME280;63171;50.520;30.486;2024-02-04T01:52:47;98718.66;;;6.29;100.00
45253;BME280;63171;50.520;30.486;2024-02-04T01:53:38;98716.25;;;6.26;100.00
45253;BME280;63171;50.520;30.486;2024-02-04T01:54:30;98718.66;;;6.29;100.00
45253;BME280;63171;50.520;30.486;2024-02-04T01:55:21;98709.56;;;6.21;100.00
45253;BME280;63171;50.520;30.486;2024-02-04T01:56:12;98714.78;;;6.21;100.00
45253;BME280;63171;50.520;30.486;2024-02-04T01:57:02;98718.31;;;6.20;100.00
45253;BME280;63171;50.520;30.486;2024-02-04T01:57:52;98709.41;;;6.10;100.00
45253;BME280;63171;50.520;30.486;2024-02-04T01:58:42;98706.81;;;6.10;100.00
45253;BME280;63171;50.520;30.486;2024-02-04T01:59:33;98706.81;;;6.10;100.00
45253;BME280;63171;50.520;30.486;2024-02-04T02:00:22;98704.19;;;6.10;100.00
45253;BME280;63171;50.520;30.486;2024-02-04T02:01:13;98711.47;;;6.05;100.00
45253;BME280;63171;50.520;30.486;2024-02-04T02:02:03;98720.53;;;6.12;100.00
45253;BME280;63171;50.520;30.486;2024-02-04T02:02:52;98720.28;;;6.17;100.00
45253;BME280;63171;50.520;30.486;2024-02-04T02:03:43;98713.31;;;6.17;100.00
45253;BME280;63171;50.520;30.486;2024-02-04T02:04:32;98715.16;;;6.15;100.00
45253;BME280;63171;50.520;30.486;2024-02-04T02:05:22;98722.88;;;6.17;100.00
45253;BME280;63171;50.520;30.486;2024-02-04T02:06:12;98727.03;;;6.19;100.00
45253;BME280;63171;50.520;30.486;2024-02-04T02:07:02;98720.16;;;6.18;100.00
45253;BME280;63171;50.520;30.486;2024-02-04T02:07:52;98729.84;;;6.16;100.00
45253;BME280;63171;50.520;30.486;2024-02-04T02:08:45;98725.56;;;6.15;100.00
45253;BME280;63171;50.520;30.486;2024-02-04T02:09:34;98728.91;;;6.17;100.00
45253;BME280;63171;50.520;30.486;2024-02-04T02:10:25;98725.63;;;6.14;100.00
45253;BME280;63171;50.520;30.486;2024-02-04T02:11:18;98730.75;;;6.15;100.00
45253;BME280;63171;50.520;30.486;2024-02-04T02:12:11;98733.44;;;6.14;100.00
45253;BME280;63171;50.520;30.486;2024-02-04T02:13:04;98726.84;;;6.08;100.00
45253;BME280;63171;50.520;30.486;2024-02-04T02:13:57;98720.94;;;6.06;100.00
45253;BME280;63171;50.520;30.486;2024-02-04T02:14:52;98729.75;;;6.04;100.00
45253;BME280;63171;50.520;30.486;2024-02-04T02:15:45;98721.03;;;6.05;100.00
45253;BME280;63171;50.520;30.486;2024-02-04T02:16:36;98722.59;;;6.07;100.00
45253;BME280;63171;50.520;30.486;2024-02-04T02:17:29;98723.13;;;6.12;100.00
45253;BME280;63171;50.520;30.486;2024-02-04T02:18:21;98722.50;;;6.09;100.00
45253;BME280;63171;50.520;30.486;2024-02-04T02:19:18;98719.59;;;6.13;100.00
45253;BME280;63171;50.520;30.486;2024-02-04T02:20:19;98720.53;;;6.12;100.00
45253;BME280;63171;50.520;30.486;2024-02-04T02:21:13;98717.09;;;6.12;100.00
45253;BME280;63171;50.520;30.486;2024-02-04T02:22:11;98718.69;;;6.14;100.00
45253;BME280;63171;50.520;30.486;2024-02-04T02:23:06;98726.31;;;6.17;100.00
45253;BME280;63171;50.520;30.486;2024-02-04T02:24:02;98723.59;;;6.19;100.00
45253;BME280;63171;50.520;30.486;2024-02-04T02:24:55;98732.88;;;6.23;100.00
45253;BME280;63171;50.520;30.486;2024-02-04T02:25:44;98725.91;;;6.23;100.00
45253;BME280;63171;50.520;30.486;2024-02-04T02:26:36;98718.19;;;6.22;100.00
45253;BME280;63171;50.520;30.486;2024-02-04T02:27:27;98718.94;;;6.24;100.00
45253;BME280;63171;50.520;30.486;2024-02-04T02:28:17;98715.41;;;6.25;100.00
45253;BME280;63171;50.520;30.486;2024-02-04T02:29:07;98713.09;;;6.20;100.00
45253;BME280;63171;50.520;30.486;2024-02-04T02:29:57;98694.06;;;6.20;100.00
45253;BME280;63171;50.520;30.486;2024-02-04T02:30:47;98718.69;;;6.14;100.00
45253;BME280;63171;50.520;30.486;2024-02-04T02:31:37;98716.84;;;6.16;100.00
45253;BME280;63171;50.520;30.486;2024-02-04T02:32:27;98717.00;;;6.13;100.00
45253;BME280;63171;50.520;30.486;2024-02-04T02:33:17;98716.94;;;6.15;100.00
45253;BME280;63171;50.520;30.486;2024-02-04T02:34:08;98717.75;;;6.15;100.00
45253;BME280;63171;50.520;30.486;2024-02-04T02:34:58;98704.56;;;6.18;100.00
45253;BME280;63171;50.520;30.486;2024-02-04T02:35:49;98714.03;;;6.19;100.00
45253;BME280;63171;50.520;30.486;2024-02-04T02:36:41;98723.69;;;6.17;100.00
45253;BME280;63171;50.520;30.486;2024-02-04T02:37:33;98725.28;;;6.20;100.00
45253;BME280;63171;50.520;30.486;2024-02-04T02:38:26;98724.22;;;6.22;100.00
45253;BME280;63171;50.520;30.486;2024-02-04T02:39:18;98723.41;;;6.22;100.00
45253;BME280;63171;50.520;30.486;2024-02-04T02:40:12;98722.78;;;6.18;100.00
45253;BME280;63171;50.520;30.486;2024-02-04T02:41:06;98723.31;;;6.23;100.00
45253;BME280;63171;50.520;30.486;2024-02-04T02:41:59;98718.84;;;6.26;100.00
45253;BME280;63171;50.520;30.486;2024-02-04T02:42:48;98710.13;;;6.12;100.00
45253;BME280;63171;50.520;30.486;2024-02-04T02:43:40;98718.03;;;6.11;100.00
45253;BME280;63171;50.520;30.486;2024-02-04T02:44:30;98718.88;;;6.11;100.00
45253;BME280;63171;50.520;30.486;2024-02-04T02:45:21;98720.38;;;6.15;100.00
45253;BME280;63171;50.520;30.486;2024-02-04T02:46:13;98719.22;;;6.19;100.00
45253;BME280;63171;50.520;30.486;2024-02-04T02:47:03;98706.69;;;6.12;100.00
45253;BME280;63171;50.520;30.486;2024-02-04T02:47:54;98712.72;;;6.12;100.00
45253;BME280;63171;50.520;30.486;2024-02-04T02:48:45;98720.44;;;6.14;100.00
45253;BME280;63171;50.520;30.486;2024-02-04T02:49:35;98709.88;;;6.17;100.00
45253;BME280;63171;50.520;30.486;2024-02-04T02:50:24;98718.19;;;6.22;100.00
45253;BME280;63171;50.520;30.486;2024-02-04T02:51:14;98730.38;;;6.21;100.00
45253;BME280;63171;50.520;30.486;2024-02-04T02:52:03;98718.00;;;6.25;100.00
45253;BME280;63171;50.520;30.486;2024-02-04T02:52:54;98717.16;;;6.25;100.00
45253;BME280;63171;50.520;30.486;2024-02-04T02:53:44;98717.47;;;6.20;100.00
45253;BME280;63171;50.520;30.486;2024-02-04T02:54:33;98721.53;;;6.24;100.00
45253;BME280;63171;50.520;30.486;2024-02-04T02:55:24;98710.31;;;6.23;100.00
45253;BME280;63171;50.520;30.486;2024-02-04T02:56:14;98716.63;;;6.19;100.00
45253;BME280;63171;50.520;30.486;2024-02-04T02:57:04;98733.59;;;6.25;100.00
45253;BME280;63171;50.520;30.486;2024-02-04T02:57:54;98716.53;;;6.21;100.00
45253;BME280;63171;50.520;30.486;2024-02-04T02:58:44;98717.47;;;6.20;100.00
45253;BME280;63171;50.520;30.486;2024-02-04T02:59:34;98714.03;;;6.19;100.00
45253;BME280;63171;50.520;30.486;2024-02-04T03:00:25;98716.53;;;6.21;100.00
45253;BME280;63171;50.520;30.486;2024-02-04T03:01:14;98713.19;;;6.19;100.00
45253;BME280;63171;50.520;30.486;2024-02-04T03:02:04;98719.34;;;6.18;100.00
45253;BME280;63171;50.520;30.486;2024-02-04T03:02:54;98718.19;;;6.22;100.00
45253;BME280;63171;50.520;30.486;2024-02-04T03:03:44;98713.41;;;6.16;100.00
45253;BME280;63171;50.520;30.486;2024-02-04T03:04:34;98721.00;;;6.19;100.00
45253;BME280;63171;50.520;30.486;2024-02-04T03:05:24;98713.00;;;6.22;100.00
45253;BME280;63171;50.520;30.486;2024-02-04T03:06:14;98708.63;;;6.22;100.00
45253;BME280;63171;50.520;30.486;2024-02-04T03:07:03;98708.84;;;6.19;100.00
45253;BME280;63171;50.520;30.486;2024-02-04T03:07:55;98716.84;;;6.16;100.00
45253;BME280;63171;50.520;30.486;2024-02-04T03:08:45;98708.09;;;6.17;100.00
45253;BME280;63171;50.520;30.486;2024-02-04T03:09:34;98707.81;;;6.22;100.00
45253;BME280;63171;50.520;30.486;2024-02-04T03:10:26;98703.44;;;6.22;100.00
45253;BME280;63171;50.520;30.486;2024-02-04T03:11:15;98704.06;;;6.26;100.00
45253;BME280;63171;50.520;30.486;2024-02-04T03:12:05;98698.69;;;6.29;100.00
45253;BME280;63171;50.520;30.486;2024-02-04T03:12:57;98695.09;;;6.17;100.00
45253;BME280;63171;50.520;30.486;2024-02-04T03:13:46;98694.28;;;6.17;100.00
45253;BME280;63171;50.520;30.486;2024-02-04T03:14:36;98696.13;;;6.15;100.00
45253;BME280;63171;50.520;30.486;2024-02-04T03:15:26;98694.06;;;6.20;100.00
45253;BME280;63171;50.520;30.486;2024-02-04T03:16:16;98698.63;;;6.16;100.00
45253;BME280;63171;50.520;30.486;2024-02-04T03:17:05;98698.44;;;6.19;100.00
45253;BME280;63171;50.520;30.486;2024-02-04T03:17:56;98697.13;;;6.12;100.00
45253;BME280;63171;50.520;30.486;2024-02-04T03:18:45;98693.72;;;6.12;100.00
45253;BME280;63171;50.520;30.486;2024-02-04T03:19:35;98694.00;;;6.07;100.00
45253;BME280;63171;50.520;30.486;2024-02-04T03:20:25;98691.50;;;6.06;100.00
45253;BME280;63171;50.520;30.486;2024-02-04T03:21:15;98704.50;;;6.06;100.00
45253;BME280;63171;50.520;30.486;2024-02-04T03:22:05;98694.84;;;6.08;100.00
45253;BME280;63171;50.520;30.486;2024-02-04T03:22:55;98702.72;;;6.06;100.00
45253;BME280;63171;50.520;30.486;2024-02-04T03:23:45;98704.41;;;6.07;100.00
45253;BME280;63171;50.520;30.486;2024-02-04T03:24:34;98697.34;;;6.09;100.00
45253;BME280;63171;50.520;30.486;2024-02-04T03:25:26;98694.19;;;6.04;100.00
45253;BME280;63171;50.520;30.486;2024-02-04T03:26:18;98704.41;;;6.07;100.00
45253;BME280;63171;50.520;30.486;2024-02-04T03:27:08;98709.69;;;6.06;100.00
45253;BME280;63171;50.520;30.486;2024-02-04T03:27:59;98702.00;;;6.04;100.00
45253;BME280;63171;50.520;30.486;2024-02-04T03:28:48;98705.63;;;6.02;100.00
45253;BME280;63171;50.520;30.486;2024-02-04T03:29:38;98701.16;;;6.04;100.00
45253;BME280;63171;50.520;30.486;2024-02-04T03:30:29;98705.22;;;6.08;100.00
45253;BME280;63171;50.520;30.486;2024-02-04T03:31:19;98703.09;;;6.00;100.00
45253;BME280;63171;50.520;30.486;2024-02-04T03:32:10;98696.13;;;6.01;100.00
45253;BME280;63171;50.520;30.486;2024-02-04T03:33:00;98690.94;;;6.01;100.00
45253;BME280;63171;50.520;30.486;2024-02-04T03:33:50;98695.13;;;6.03;100.00
45253;BME280;63171;50.520;30.486;2024-02-04T03:34:40;98693.09;;;5.94;100.00
45253;BME280;63171;50.520;30.486;2024-02-04T03:35:31;98702.75;;;5.92;100.00
45253;BME280;63171;50.520;30.486;2024-02-04T03:36:21;98694.56;;;5.98;100.00
45253;BME280;63171;50.520;30.486;2024-02-04T03:37:12;98701.28;;;6.02;100.00
45253;BME280;63171;50.520;30.486;2024-02-04T03:38:03;98700.34;;;6.03;100.00
45253;BME280;63171;50.520;30.486;2024-02-04T03:38:52;98699.13;;;5.95;100.00
45253;BME280;63171;50.520;30.486;2024-02-04T03:39:42;98701.72;;;5.95;100.00
45253;BME280;63171;50.520;30.486;2024-02-04T03:40:34;98695.50;;;5.97;100.00
45253;BME280;63171;50.520;30.486;2024-02-04T03:41:24;98703.69;;;5.91;100.00
45253;BME280;63171;50.520;30.486;2024-02-04T03:42:13;98704.44;;;5.93;100.00
45253;BME280;63171;50.520;30.486;2024-02-04T03:43:04;98704.13;;;5.98;100.00
45253;BME280;63171;50.520;30.486;2024-02-04T03:43:53;98705.16;;;5.95;100.00
45253;BME280;63171;50.520;30.486;2024-02-04T03:44:44;98712.22;;;5.93;100.00
45253;BME280;63171;50.520;30.486;2024-02-04T03:45:36;98712.66;;;6.00;100.00
45253;BME280;63171;50.520;30.486;2024-02-04T03:46:25;98705.78;;;5.99;100.00
45253;BME280;63171;50.520;30.486;2024-02-04T03:47:14;98705.69;;;6.00;100.00
45253;BME280;63171;50.520;30.486;2024-02-04T03:48:05;98712.50;;;6.03;100.00
45253;BME280;63171;50.520;30.486;2024-02-04T03:48:55;98710.00;;;6.01;100.00
45253;BME280;63171;50.520;30.486;2024-02-04T03:49:45;98713.50;;;6.00;100.00
45253;BME280;63171;50.520;30.486;2024-02-04T03:50:35;98705.16;;;5.95;100.00
45253;BME280;63171;50.520;30.486;2024-02-04T03:51:24;98712.75;;;5.98;100.00
45253;BME280;63171;50.520;30.486;2024-02-04T03:52:13;98705.69;;;6.00;100.00
45253;BME280;63171;50.520;30.486;2024-02-04T03:53:05;98715.09;;;6.03;100.00
45253;BME280;63171;50.520;30.486;2024-02-04T03:53:55;98715.84;;;6.05;100.00
45253;BME280;63171;50.520;30.486;2024-02-04T03:54:45;98712.41;;;6.04;100.00
45253;BME280;63171;50.520;30.486;2024-02-04T03:55:36;98713.34;;;6.03;100.00
45253;BME280;63171;50.520;30.486;2024-02-04T03:56:26;98718.69;;;6.00;100.00
45253;BME280;63171;50.520;30.486;2024-02-04T03:57:16;98706.63;;;5.99;100.00
45253;BME280;63171;50.520;30.486;2024-02-04T03:58:09;98715.19;;;6.01;100.00
45253;BME280;63171;50.520;30.486;2024-02-04T03:58:59;98710.53;;;6.06;100.00
45253;BME280;63171;50.520;30.486;2024-02-04T03:59:49;98719.16;;;6.07;100.00
45253;BME280;63171;50.520;30.486;2024-02-04T04:00:38;98720.09;;;6.06;100.00
45253;BME280;63171;50.520;30.486;2024-02-04T04:01:28;98720.00;;;6.07;100.00
45253;BME280;63171;50.520;30.486;2024-02-04T04:02:18;98710.34;;;6.09;100.00
45253;BME280;63171;50.520;30.486;2024-02-04T04:03:07;98708.88;;;6.05;100.00
45253;BME280;63171;50.520;30.486;2024-02-04T04:03:57;98710.63;;;6.05;100.00
45253;BME280;63171;50.520;30.486;2024-02-04T04:04:47;98719.78;;;6.10;100.00
45253;BME280;63171;50.520;30.486;2024-02-04T04:05:37;98711.16;;;6.10;100.00
45253;BME280;63171;50.520;30.486;2024-02-04T04:06:27;98722.50;;;6.09;100.00
45253;BME280;63171;50.520;30.486;2024-02-04T04:07:16;98722.28;;;6.12;100.00
45253;BME280;63171;50.520;30.486;2024-02-04T04:08:06;98715.34;;;6.12;100.00
45253;BME280;63171;50.520;30.486;2024-02-04T04:08:56;98723.31;;;6.09;100.00
45253;BME280;63171;50.520;30.486;2024-02-04T04:09:48;98721.47;;;6.11;100.00
45253;BME280;63171;50.520;30.486;2024-02-04T04:10:39;98736.44;;;6.08;100.00
45253;BME280;63171;50.520;30.486;2024-02-04T04:11:29;98718.53;;;6.03;100.00
45253;BME280;63171;50.520;30.486;2024-02-04T04:12:18;98720.94;;;6.06;100.00
45253;BME280;63171;50.520;30.486;2024-02-04T04:13:09;98727.25;;;6.02;100.00
45253;BME280;63171;50.520;30.486;2024-02-04T04:13:58;98721.75;;;6.07;100.00
45253;BME280;63171;50.520;30.486;2024-02-04T04:14:47;98730.59;;;6.04;100.00
45253;BME280;63171;50.520;30.486;2024-02-04T04:15:37;98730.69;;;6.03;100.00
45253;BME280;63171;50.520;30.486;2024-02-04T04:16:27;98741.91;;;6.03;100.00
45253;BME280;63171;50.520;30.486;2024-02-04T04:17:18;98725.28;;;6.06;100.00
45253;BME280;63171;50.520;30.486;2024-02-04T04:18:07;98732.78;;;6.10;100.00
45253;BME280;63171;50.520;30.486;2024-02-04T04:18:56;98725.72;;;6.12;100.00
45253;BME280;63171;50.520;30.486;2024-02-04T04:19:47;98732.69;;;6.12;100.00
45253;BME280;63171;50.520;30.486;2024-02-04T04:20:37;98735.19;;;6.13;100.00
45253;BME280;63171;50.520;30.486;2024-02-04T04:21:27;98737.72;;;6.15;100.00
45253;BME280;63171;50.520;30.486;2024-02-04T04:22:16;98742.72;;;6.18;100.00
45253;BME280;63171;50.520;30.486;2024-02-04T04:23:07;98728.63;;;6.08;100.00
45253;BME280;63171;50.520;30.486;2024-02-04T04:23:56;98733.72;;;6.09;100.00
45253;BME280;63171;50.520;30.486;2024-02-04T04:24:46;98738.59;;;6.01;100.00
45253;BME280;63171;50.520;30.486;2024-02-04T04:25:36;98726.13;;;6.06;100.00
45253;BME280;63171;50.520;30.486;2024-02-04T04:26:27;98739.13;;;6.06;100.00